Washington, DC (20074)

4:58 PM EDT on March 27, 2015 (GMT -0400)
Eckington Pl, NE | | Change Station
CLOSE
Current Station
Personal Weather Station
Location: Washington, DC
Elevation: 90 ft
Nearby Weather Stations

Elev 90 ft 38.91 °N, 77.01 °W | Updated 4 minutes ago

Overcast
Overcast
49.7 °F
Feels Like 49 °F
N
4.0
Wind Variable Wind from WNW
Gusts 8.0 mph

Today
High -- | Low -- °F
--% Chance of Precip.
Yesterday
High -- | Low -- °F
Precip. -- in
7:00 AM 7:26 PM
First Quarter, 55% visible
Pressure 29.77 in
Visibility 10.0 miles
Clouds Few 4000 ft
Mostly Cloudy 5000 ft
Mostly Cloudy 13000 ft
Windchill 49 °F
Dew Point 31 °F
Humidity 48%
Rainfall -999.00 in
Snow Depth Not available.
UV 1 out of 12
Pollen 4.00 out of 12
Air Quality Not available.
Flu Activity Not available.
METAR KDCA 272052Z 32009G17KT 10SM FEW040 BKN050 BKN130 11/M01 A2977 RMK AO2 SLP080 T01061006 56013

More Conditions Fewer Conditions

Pressure 29.77 in
Visibility 10.0 miles
Clouds Few 4000 ft
Mostly Cloudy 5000 ft
Mostly Cloudy 13000 ft
Windchill 49 °F
Dew Point 31 °F
Humidity 48%
Rainfall -999.00 in
Snow Depth Not available.
UV 1 out of 12
Pollen 4.00 out of 12
Air Quality Not available.
Flu Activity Not available.
METAR KDCA 272052Z 32009G17KT 10SM FEW040 BKN050 BKN130 11/M01 A2977 RMK AO2 SLP080 T01061006 56013

More Conditions Fewer Conditions

10-Day Weather Forecast

Almanac

Astronomy

Mar. 27, 2015 Rise Set
Actual Time
Civil Twilight
Nautical Twilight
Astronomical Twilight
Moon
Length of Visible Light
Length of Day
Tomorrow will be .
, % of the Moon is Illuminated

Today's Extremes

State Highs State Lows

Community

WunderPhotos

Upload Photos

1,808,822 photos uploaded!

WunderBlogs® & News

Nearby

Air Quality

  Air Quality AQ Index Pollutant
Not available.

Snow Depth

Station Depth Elevation

Earthquake Activity

City Distance Mag. Time & Date
Minimum magnitude displayed is 2.5.

Coastal Water Temperatures

Place Temperature

Stations

Nearby Weather Stations

Station Location Temp. Windchill Dew Point Humidity Wind Precip. Elev Updated Type